sensor_id;sensor_type;location;lat;lon;timestamp;pressure;altitude;pressure_sealevel;temperature;humidity
60371;BME280;48550;40.588;49.684;2023-03-04T00:00:38;101168.69;;;9.22;100.00
60371;BME280;48550;40.588;49.684;2023-03-04T00:03:08;101160.44;;;9.24;100.00
60371;BME280;48550;40.588;49.684;2023-03-04T00:05:36;101153.22;;;9.24;100.00
60371;BME280;48550;40.588;49.684;2023-03-04T00:08:02;101143.13;;;9.27;100.00
60371;BME280;48550;40.588;49.684;2023-03-04T00:10:28;101147.41;;;9.34;100.00
60371;BME280;48550;40.588;49.684;2023-03-04T00:12:54;101151.91;;;9.40;100.00
60371;BME280;48550;40.588;49.684;2023-03-04T00:15:19;101139.34;;;9.41;100.00
60371;BME280;48550;40.588;49.684;2023-03-04T00:17:45;101114.41;;;9.40;100.00
60371;BME280;48550;40.588;49.684;2023-03-04T00:20:11;101102.69;;;9.35;100.00
60371;BME280;48550;40.588;49.684;2023-03-04T00:22:37;101127.81;;;9.34;100.00
60371;BME280;48550;40.588;49.684;2023-03-04T00:25:03;101129.69;;;9.33;100.00
60371;BME280;48550;40.588;49.684;2023-03-04T00:27:29;101117.53;;;9.31;100.00
60371;BME280;48550;40.588;49.684;2023-03-04T00:29:55;101111.75;;;9.34;100.00
60371;BME280;48550;40.588;49.684;2023-03-04T00:32:22;101119.38;;;9.37;100.00
60371;BME280;48550;40.588;49.684;2023-03-04T00:34:47;101106.75;;;9.44;100.00
60371;BME280;48550;40.588;49.684;2023-03-04T00:37:13;101111.06;;;9.45;100.00
60371;BME280;48550;40.588;49.684;2023-03-04T00:39:39;101108.31;;;9.58;100.00
60371;BME280;48550;40.588;49.684;2023-03-04T00:42:05;101104.00;;;9.57;100.00
60371;BME280;48550;40.588;49.684;2023-03-04T00:44:31;101107.31;;;9.52;100.00
60371;BME280;48550;40.588;49.684;2023-03-04T00:46:56;101084.72;;;9.42;100.00
60371;BME280;48550;40.588;49.684;2023-03-04T00:49:22;101080.94;;;9.49;100.00
60371;BME280;48550;40.588;49.684;2023-03-04T00:51:48;101063.25;;;9.48;100.00
60371;BME280;48550;40.588;49.684;2023-03-04T00:54:13;101053.28;;;9.55;100.00
60371;BME280;48550;40.588;49.684;2023-03-04T00:56:39;101050.94;;;9.66;100.00
60371;BME280;48550;40.588;49.684;2023-03-04T00:59:05;101026.97;;;9.77;100.00
60371;BME280;48550;40.588;49.684;2023-03-04T01:01:30;101038.38;;;9.91;100.00
60371;BME280;48550;40.588;49.684;2023-03-04T01:03:56;101048.28;;;9.91;100.00
60371;BME280;48550;40.588;49.684;2023-03-04T01:06:22;101032.47;;;9.82;100.00
60371;BME280;48550;40.588;49.684;2023-03-04T01:08:47;101026.91;;;9.84;100.00
60371;BME280;48550;40.588;49.684;2023-03-04T01:11:13;101024.06;;;9.79;100.00
60371;BME280;48550;40.588;49.684;2023-03-04T01:13:39;101023.78;;;9.87;100.00
60371;BME280;48550;40.588;49.684;2023-03-04T01:16:05;101038.75;;;9.95;100.00
60371;BME280;48550;40.588;49.684;2023-03-04T01:18:32;101044.88;;;10.02;100.00
60371;BME280;48550;40.588;49.684;2023-03-04T01:20:58;101056.31;;;9.91;100.00
60371;BME280;48550;40.588;49.684;2023-03-04T01:23:24;101053.25;;;9.87;100.00
60371;BME280;48550;40.588;49.684;2023-03-04T01:25:49;101083.41;;;9.82;100.00
60371;BME280;48550;40.588;49.684;2023-03-04T01:28:15;101079.09;;;9.81;100.00
60371;BME280;48550;40.588;49.684;2023-03-04T01:30:41;101075.16;;;9.84;100.00
60371;BME280;48550;40.588;49.684;2023-03-04T01:33:07;101077.63;;;9.85;100.00
60371;BME280;48550;40.588;49.684;2023-03-04T01:35:32;101066.44;;;9.88;100.00
60371;BME280;48550;40.588;49.684;2023-03-04T01:37:58;101063.94;;;9.69;100.00
60371;BME280;48550;40.588;49.684;2023-03-04T01:40:24;101074.25;;;9.65;100.00
60371;BME280;48550;40.588;49.684;2023-03-04T01:42:49;101066.63;;;9.62;100.00
60371;BME280;48550;40.588;49.684;2023-03-04T01:45:17;101071.19;;;9.62;100.00
60371;BME280;48550;40.588;49.684;2023-03-04T01:47:46;101068.66;;;9.73;100.00
60371;BME280;48550;40.588;49.684;2023-03-04T01:50:22;101046.47;;;9.60;100.00
60371;BME280;48550;40.588;49.684;2023-03-04T01:52:49;101050.56;;;9.62;100.00
60371;BME280;48550;40.588;49.684;2023-03-04T01:55:18;101074.06;;;9.67;100.00
60371;BME280;48550;40.588;49.684;2023-03-04T01:57:45;101056.97;;;9.61;100.00
60371;BME280;48550;40.588;49.684;2023-03-04T02:02:45;101048.69;;;9.69;100.00
60371;BME280;48550;40.588;49.684;2023-03-04T02:05:11;101045.50;;;9.79;100.00
60371;BME280;48550;40.588;49.684;2023-03-04T02:07:37;101039.81;;;9.69;100.00
60371;BME280;48550;40.588;49.684;2023-03-04T02:10:03;101049.88;;;9.73;100.00
60371;BME280;48550;40.588;49.684;2023-03-04T02:12:29;101056.81;;;9.81;100.00
60371;BME280;48550;40.588;49.684;2023-03-04T02:14:55;101052.63;;;9.67;100.00
60371;BME280;48550;40.588;49.684;2023-03-04T02:17:24;101060.03;;;9.65;100.00
60371;BME280;48550;40.588;49.684;2023-03-04T02:22:39;101055.84;;;9.75;100.00
60371;BME280;48550;40.588;49.684;2023-03-04T02:25:11;101050.69;;;9.74;100.00
60371;BME280;48550;40.588;49.684;2023-03-04T02:27:39;101052.56;;;9.73;100.00
60371;BME280;48550;40.588;49.684;2023-03-04T02:30:06;101053.53;;;9.79;100.00
60371;BME280;48550;40.588;49.684;2023-03-04T02:32:32;101067.44;;;9.69;100.00
60371;BME280;48550;40.588;49.684;2023-03-04T02:34:57;101080.34;;;9.16;100.00
60371;BME280;48550;40.588;49.684;2023-03-04T02:37:23;101070.78;;;8.82;100.00
60371;BME280;48550;40.588;49.684;2023-03-04T02:39:49;101065.97;;;8.52;100.00
60371;BME280;48550;40.588;49.684;2023-03-04T02:42:15;101078.13;;;8.42;100.00
60371;BME280;48550;40.588;49.684;2023-03-04T02:44:45;101100.97;;;8.44;100.00
60371;BME280;48550;40.588;49.684;2023-03-04T02:47:14;101120.91;;;8.02;100.00
60371;BME280;48550;40.588;49.684;2023-03-04T02:49:42;101129.13;;;7.61;100.00
60371;BME280;48550;40.588;49.684;2023-03-04T02:52:13;101110.69;;;7.18;100.00
60371;BME280;48550;40.588;49.684;2023-03-04T02:54:40;101116.41;;;7.02;100.00
60371;BME280;48550;40.588;49.684;2023-03-04T02:57:07;101154.03;;;6.73;100.00
60371;BME280;48550;40.588;49.684;2023-03-04T02:59:34;101169.03;;;6.80;100.00
60371;BME280;48550;40.588;49.684;2023-03-04T03:02:00;101170.06;;;6.79;100.00
60371;BME280;48550;40.588;49.684;2023-03-04T03:04:26;101172.19;;;6.62;100.00
60371;BME280;48550;40.588;49.684;2023-03-04T03:06:52;101167.00;;;6.54;100.00
60371;BME280;48550;40.588;49.684;2023-03-04T03:09:19;101165.44;;;6.66;100.00
60371;BME280;48550;40.588;49.684;2023-03-04T03:11:45;101178.16;;;6.64;100.00
60371;BME280;48550;40.588;49.684;2023-03-04T03:14:11;101185.44;;;6.49;100.00
60371;BME280;48550;40.588;49.684;2023-03-04T03:16:36;101189.56;;;6.52;100.00
60371;BME280;48550;40.588;49.684;2023-03-04T03:19:02;101206.63;;;6.57;100.00
60371;BME280;48550;40.588;49.684;2023-03-04T03:21:28;101220.00;;;6.64;100.00
60371;BME280;48550;40.588;49.684;2023-03-04T03:23:54;101217.66;;;6.76;100.00
60371;BME280;48550;40.588;49.684;2023-03-04T03:26:20;101225.66;;;6.76;100.00
60371;BME280;48550;40.588;49.684;2023-03-04T03:28:46;101223.84;;;6.83;100.00
60371;BME280;48550;40.588;49.684;2023-03-04T03:31:12;101219.69;;;6.74;100.00
60371;BME280;48550;40.588;49.684;2023-03-04T03:33:38;101221.94;;;6.70;100.00
60371;BME280;48550;40.588;49.684;2023-03-04T03:36:04;101238.56;;;6.72;100.00
60371;BME280;48550;40.588;49.684;2023-03-04T03:38:30;101235.16;;;6.85;100.00
60371;BME280;48550;40.588;49.684;2023-03-04T03:40:56;101226.56;;;6.61;100.00
60371;BME280;48550;40.588;49.684;2023-03-04T03:43:21;101232.31;;;6.65;100.00
60371;BME280;48550;40.588;49.684;2023-03-04T03:45:47;101230.47;;;6.65;100.00
60371;BME280;48550;40.588;49.684;2023-03-04T03:48:16;101237.53;;;6.73;100.00
60371;BME280;48550;40.588;49.684;2023-03-04T03:50:42;101245.16;;;6.76;100.00
60371;BME280;48550;40.588;49.684;2023-03-04T03:53:08;101265.03;;;6.74;100.00
60371;BME280;48550;40.588;49.684;2023-03-04T03:55:33;101278.72;;;6.92;100.00
60371;BME280;48550;40.588;49.684;2023-03-04T03:57:59;101272.22;;;7.01;100.00
60371;BME280;48550;40.588;49.684;2023-03-04T04:00:25;101278.69;;;7.20;100.00
60371;BME280;48550;40.588;49.684;2023-03-04T04:02:52;101285.72;;;7.27;100.00
60371;BME280;48550;40.588;49.684;2023-03-04T04:05:19;101288.84;;;7.38;100.00
60371;BME280;48550;40.588;49.684;2023-03-04T04:07:45;101306.91;;;7.36;100.00
60371;BME280;48550;40.588;49.684;2023-03-04T04:10:11;101293.97;;;7.39;100.00
60371;BME280;48550;40.588;49.684;2023-03-04T04:12:37;101294.41;;;7.43;100.00
60371;BME280;48550;40.588;49.684;2023-03-04T04:15:03;101293.25;;;7.52;100.00
60371;BME280;48550;40.588;49.684;2023-03-04T04:17:29;101315.03;;;7.49;100.00
60371;BME280;48550;40.588;49.684;2023-03-04T04:19:54;101302.56;;;7.28;100.00
60371;BME280;48550;40.588;49.684;2023-03-04T04:22:20;101317.88;;;7.47;100.00
60371;BME280;48550;40.588;49.684;2023-03-04T04:24:46;101313.28;;;7.34;100.00
60371;BME280;48550;40.588;49.684;2023-03-04T04:27:13;101304.16;;;7.57;100.00
60371;BME280;48550;40.588;49.684;2023-03-04T04:29:39;101304.00;;;7.65;100.00
60371;BME280;48550;40.588;49.684;2023-03-04T04:32:05;101304.66;;;7.80;100.00
60371;BME280;48550;40.588;49.684;2023-03-04T04:34:32;101317.44;;;7.85;100.00
60371;BME280;48550;40.588;49.684;2023-03-04T04:36:57;101316.38;;;7.79;100.00
60371;BME280;48550;40.588;49.684;2023-03-04T04:39:23;101323.63;;;7.92;100.00
60371;BME280;48550;40.588;49.684;2023-03-04T04:41:49;101323.88;;;8.10;100.00
60371;BME280;48550;40.588;49.684;2023-03-04T04:44:15;101323.31;;;8.21;100.00
60371;BME280;48550;40.588;49.684;2023-03-04T04:46:41;101330.47;;;8.14;100.00
60371;BME280;48550;40.588;49.684;2023-03-04T04:49:07;101336.16;;;8.39;100.00
60371;BME280;48550;40.588;49.684;2023-03-04T04:51:35;101330.00;;;8.58;100.00
60371;BME280;48550;40.588;49.684;2023-03-04T04:54:02;101334.13;;;8.54;100.00
60371;BME280;48550;40.588;49.684;2023-03-04T04:56:28;101337.22;;;8.78;100.00
60371;BME280;48550;40.588;49.684;2023-03-04T04:58:57;101333.91;;;8.89;100.00
60371;BME280;48550;40.588;49.684;2023-03-04T05:01:24;101333.91;;;8.89;100.00
60371;BME280;48550;40.588;49.684;2023-03-04T05:03:50;101331.03;;;9.10;100.00
60371;BME280;48550;40.588;49.684;2023-03-04T05:06:18;101333.50;;;8.72;100.00
60371;BME280;48550;40.588;49.684;2023-03-04T05:08:44;101337.81;;;8.67;100.00
60371;BME280;48550;40.588;49.684;2023-03-04T05:11:09;101331.00;;;8.38;100.00
60371;BME280;48550;40.588;49.684;2023-03-04T05:13:35;101337.81;;;8.60;100.00
60371;BME280;48550;40.588;49.684;2023-03-04T05:16:01;101343.81;;;9.08;100.00
60371;BME280;48550;40.588;49.684;2023-03-04T05:18:27;101334.06;;;9.47;100.00
60371;BME280;48550;40.588;49.684;2023-03-04T05:20:55;101328.75;;;9.98;100.00
60371;BME280;48550;40.588;49.684;2023-03-04T05:23:22;101330.47;;;9.79;100.00
60371;BME280;48550;40.588;49.684;2023-03-04T05:25:48;101329.06;;;10.15;100.00
60371;BME280;48550;40.588;49.684;2023-03-04T05:28:14;101325.72;;;10.26;100.00
60371;BME280;48550;40.588;49.684;2023-03-04T05:30:42;101322.47;;;10.11;100.00
60371;BME280;48550;40.588;49.684;2023-03-04T05:33:09;101329.34;;;10.00;100.00
60371;BME280;48550;40.588;49.684;2023-03-04T05:35:36;101342.16;;;9.98;100.00
60371;BME280;48550;40.588;49.684;2023-03-04T05:38:04;101333.72;;;9.95;100.00
60371;BME280;48550;40.588;49.684;2023-03-04T05:40:30;101339.25;;;10.00;100.00
60371;BME280;48550;40.588;49.684;2023-03-04T05:42:56;101343.50;;;10.14;100.00
60371;BME280;48550;40.588;49.684;2023-03-04T05:45:23;101339.56;;;10.23;100.00
60371;BME280;48550;40.588;49.684;2023-03-04T05:47:48;101339.34;;;10.25;100.00
60371;BME280;48550;40.588;49.684;2023-03-04T05:50:14;101329.06;;;10.22;100.00
60371;BME280;48550;40.588;49.684;2023-03-04T05:52:40;101333.69;;;10.01;100.00
60371;BME280;48550;40.588;49.684;2023-03-04T05:55:06;101329.75;;;10.04;100.00
60371;BME280;48550;40.588;49.684;2023-03-04T05:57:32;101341.81;;;9.81;100.00
60371;BME280;48550;40.588;49.684;2023-03-04T05:59:58;101335.16;;;9.19;100.00
60371;BME280;48550;40.588;49.684;2023-03-04T06:02:24;101339.84;;;9.44;100.00
60371;BME280;48550;40.588;49.684;2023-03-04T06:04:49;101335.38;;;9.89;100.00
60371;BME280;48550;40.588;49.684;2023-03-04T06:07:15;101330.78;;;10.03;100.00
60371;BME280;48550;40.588;49.684;2023-03-04T06:09:41;101321.22;;;10.20;100.00
60371;BME280;48550;40.588;49.684;2023-03-04T06:12:10;101320.59;;;10.56;100.00
60371;BME280;48550;40.588;49.684;2023-03-04T06:14:36;101320.50;;;10.94;100.00
60371;BME280;48550;40.588;49.684;2023-03-04T06:17:02;101330.34;;;10.50;100.00
60371;BME280;48550;40.588;49.684;2023-03-04T06:19:28;101331.94;;;11.51;100.00
60371;BME280;48550;40.588;49.684;2023-03-04T06:21:54;101337.16;;;12.19;100.00
60371;BME280;48550;40.588;49.684;2023-03-04T06:24:20;101329.53;;;12.16;100.00
60371;BME280;48550;40.588;49.684;2023-03-04T06:26:45;101334.91;;;12.16;100.00
60371;BME280;48550;40.588;49.684;2023-03-04T06:29:11;101328.13;;;11.77;100.00
60371;BME280;48550;40.588;49.684;2023-03-04T06:31:37;101325.38;;;12.02;100.00
60371;BME280;48550;40.588;49.684;2023-03-04T06:34:04;101331.47;;;11.72;100.00
60371;BME280;48550;40.588;49.684;2023-03-04T06:36:29;101329.47;;;11.68;100.00
60371;BME280;48550;40.588;49.684;2023-03-04T06:38:55;101322.53;;;11.78;100.00
60371;BME280;48550;40.588;49.684;2023-03-04T06:41:21;101323.44;;;11.91;100.00
60371;BME280;48550;40.588;49.684;2023-03-04T06:43:47;101311.25;;;11.88;100.00
60371;BME280;48550;40.588;49.684;2023-03-04T06:46:12;101315.66;;;11.83;100.00
60371;BME280;48550;40.588;49.684;2023-03-04T06:48:38;101311.25;;;11.70;100.00
60371;BME280;48550;40.588;49.684;2023-03-04T06:51:08;101309.28;;;11.77;100.00
60371;BME280;48550;40.588;49.684;2023-03-04T06:53:35;101312.34;;;12.17;100.00
60371;BME280;48550;40.588;49.684;2023-03-04T06:56:01;101300.88;;;11.92;100.00
60371;BME280;48550;40.588;49.684;2023-03-04T06:58:27;101309.22;;;11.65;100.00
60371;BME280;48550;40.588;49.684;2023-03-04T07:00:53;101297.28;;;11.43;100.00
60371;BME280;48550;40.588;49.684;2023-03-04T07:03:20;101297.06;;;11.63;100.00
60371;BME280;48550;40.588;49.684;2023-03-04T07:05:45;101290.69;;;11.75;100.00
60371;BME280;48550;40.588;49.684;2023-03-04T07:08:11;101294.44;;;11.56;100.00
60371;BME280;48550;40.588;49.684;2023-03-04T07:10:37;101294.00;;;11.96;100.00
60371;BME280;48550;40.588;49.684;2023-03-04T07:13:02;101287.03;;;12.60;100.00
60371;BME280;48550;40.588;49.684;2023-03-04T07:15:28;101285.09;;;12.90;100.00
60371;BME280;48550;40.588;49.684;2023-03-04T07:17:54;101280.66;;;13.31;96.70
60371;BME280;48550;40.588;49.684;2023-03-04T07:20:20;101275.50;;;13.18;96.05
60371;BME280;48550;40.588;49.684;2023-03-04T07:22:46;101274.91;;;13.04;95.99
60371;BME280;48550;40.588;49.684;2023-03-04T07:25:12;101261.19;;;12.82;98.62
60371;BME280;48550;40.588;49.684;2023-03-04T07:27:38;101263.94;;;12.40;100.00
60371;BME280;48550;40.588;49.684;2023-03-04T07:30:05;101262.19;;;12.46;100.00
60371;BME280;48550;40.588;49.684;2023-03-04T07:32:31;101263.59;;;12.49;100.00
60371;BME280;48550;40.588;49.684;2023-03-04T07:34:59;101259.56;;;12.16;100.00
60371;BME280;48550;40.588;49.684;2023-03-04T07:37:24;101258.09;;;12.44;100.00
60371;BME280;48550;40.588;49.684;2023-03-04T07:39:50;101265.72;;;12.58;100.00
60371;BME280;48550;40.588;49.684;2023-03-04T07:42:16;101266.19;;;12.44;100.00
60371;BME280;48550;40.588;49.684;2023-03-04T07:44:41;101259.88;;;12.50;100.00
60371;BME280;48550;40.588;49.684;2023-03-04T07:47:07;101251.19;;;12.36;100.00
60371;BME280;48550;40.588;49.684;2023-03-04T07:49:33;101248.53;;;12.06;100.00
60371;BME280;48550;40.588;49.684;2023-03-04T07:52:05;101252.41;;;12.10;100.00
60371;BME280;48550;40.588;49.684;2023-03-04T07:54:31;101246.03;;;11.93;100.00
60371;BME280;48550;40.588;49.684;2023-03-04T07:56:57;101242.31;;;11.94;100.00
60371;BME280;48550;40.588;49.684;2023-03-04T07:59:23;101243.06;;;11.83;100.00
60371;BME280;48550;40.588;49.684;2023-03-04T08:01:48;101246.94;;;11.87;100.00
60371;BME280;48550;40.588;49.684;2023-03-04T08:04:14;101250.06;;;12.02;100.00
60371;BME280;48550;40.588;49.684;2023-03-04T08:06:40;101243.81;;;11.90;100.00
60371;BME280;48550;40.588;49.684;2023-03-04T08:09:09;101237.91;;;12.11;100.00
60371;BME280;48550;40.588;49.684;2023-03-04T08:11:36;101240.22;;;11.59;100.00
60371;BME280;48550;40.588;49.684;2023-03-04T08:14:03;101237.13;;;11.44;100.00
60371;BME280;48550;40.588;49.684;2023-03-04T08:16:29;101233.47;;;11.38;100.00
60371;BME280;48550;40.588;49.684;2023-03-04T08:18:57;101233.25;;;11.40;100.00
60371;BME280;48550;40.588;49.684;2023-03-04T08:21:24;101233.75;;;11.49;100.00
60371;BME280;48550;40.588;49.684;2023-03-04T08:23:51;101232.56;;;11.44;100.00
60371;BME280;48550;40.588;49.684;2023-03-04T08:26:27;101225.28;;;11.63;100.00
60371;BME280;48550;40.588;49.684;2023-03-04T08:28:54;101222.25;;;11.41;100.00
60371;BME280;48550;40.588;49.684;2023-03-04T08:31:21;101222.63;;;11.45;100.00
60371;BME280;48550;40.588;49.684;2023-03-04T08:33:46;101224.69;;;11.61;100.00
60371;BME280;48550;40.588;49.684;2023-03-04T08:36:13;101213.75;;;11.74;100.00
60371;BME280;48550;40.588;49.684;2023-03-04T08:38:39;101220.78;;;11.75;100.00
60371;BME280;48550;40.588;49.684;2023-03-04T08:41:05;101206.72;;;11.43;100.00
60371;BME280;48550;40.588;49.684;2023-03-04T08:43:31;101213.47;;;11.64;100.00
60371;BME280;48550;40.588;49.684;2023-03-04T08:45:58;101204.25;;;11.42;100.00
60371;BME280;48550;40.588;49.684;2023-03-04T08:48:25;101191.97;;;11.64;100.00
60371;BME280;48550;40.588;49.684;2023-03-04T08:50:51;101189.56;;;11.74;100.00
60371;BME280;48550;40.588;49.684;2023-03-04T08:53:18;101189.97;;;11.60;100.00
60371;BME280;48550;40.588;49.684;2023-03-04T08:55:44;101175.84;;;11.64;100.00
60371;BME280;48550;40.588;49.684;2023-03-04T08:58:11;101178.91;;;11.38;100.00
60371;BME280;48550;40.588;49.684;2023-03-04T09:00:39;101172.31;;;11.34;100.00
60371;BME280;48550;40.588;49.684;2023-03-04T09:03:08;101169.25;;;11.49;100.00
60371;BME280;48550;40.588;49.684;2023-03-04T09:05:34;101158.56;;;11.42;100.00
60371;BME280;48550;40.588;49.684;2023-03-04T09:08:00;101169.41;;;11.65;100.00
60371;BME280;48550;40.588;49.684;2023-03-04T09:10:26;101159.91;;;11.51;100.00
60371;BME280;48550;40.588;49.684;2023-03-04T09:12:52;101157.25;;;11.63;100.00
60371;BME280;48550;40.588;49.684;2023-03-04T09:15:18;101160.53;;;11.65;100.00
60371;BME280;48550;40.588;49.684;2023-03-04T09:17:44;101160.13;;;11.50;100.00
60371;BME280;48550;40.588;49.684;2023-03-04T09:20:11;101148.56;;;11.49;100.00
60371;BME280;48550;40.588;49.684;2023-03-04T09:22:37;101149.81;;;11.46;100.00
60371;BME280;48550;40.588;49.684;2023-03-04T09:25:04;101138.56;;;11.38;100.00
60371;BME280;48550;40.588;49.684;2023-03-04T09:27:30;101130.69;;;11.25;100.00
60371;BME280;48550;40.588;49.684;2023-03-04T09:29:55;101115.34;;;11.43;100.00
60371;BME280;48550;40.588;49.684;2023-03-04T09:32:21;101124.69;;;11.41;100.00
60371;BME280;48550;40.588;49.684;2023-03-04T09:34:46;101112.19;;;11.46;100.00
60371;BME280;48550;40.588;49.684;2023-03-04T09:37:12;101120.44;;;11.63;100.00
60371;BME280;48550;40.588;49.684;2023-03-04T09:39:38;101116.09;;;11.62;100.00
60371;BME280;48550;40.588;49.684;2023-03-04T09:42:05;101126.31;;;11.42;100.00
60371;BME280;48550;40.588;49.684;2023-03-04T09:44:42;101115.03;;;11.22;100.00
60371;BME280;48550;40.588;49.684;2023-03-04T09:47:13;101114.97;;;10.92;100.00
60371;BME280;48550;40.588;49.684;2023-03-04T09:49:43;101115.66;;;10.69;100.00
60371;BME280;48550;40.588;49.684;2023-03-04T10:00:18;101113.03;;;10.80;100.00
60371;BME280;48550;40.588;49.684;2023-03-04T10:05:33;101108.94;;;10.78;100.00
60371;BME280;48550;40.588;49.684;2023-03-04T10:11:34;101122.44;;;10.90;100.00
60371;BME280;48550;40.588;49.684;2023-03-04T10:16:52;101135.31;;;10.44;100.00
60371;BME280;48550;40.588;49.684;2023-03-04T10:19:54;101138.59;;;10.46;100.00
60371;BME280;48550;40.588;49.684;2023-03-04T10:22:36;101144.31;;;10.00;100.00
60371;BME280;48550;40.588;49.684;2023-03-04T10:25:23;101143.75;;;9.67;100.00
60371;BME280;48550;40.588;49.684;2023-03-04T10:28:05;101139.06;;;9.87;100.00
60371;BME280;48550;40.588;49.684;2023-03-04T10:33:17;101146.19;;;10.00;100.00
60371;BME280;48550;40.588;49.684;2023-03-04T10:35:46;101151.69;;;9.80;100.00
60371;BME280;48550;40.588;49.684;2023-03-04T10:38:14;101145.16;;;9.69;100.00
60371;BME280;48550;40.588;49.684;2023-03-04T10:40:41;101152.72;;;9.41;100.00
60371;BME280;48550;40.588;49.684;2023-03-04T10:43:18;101154.38;;;9.42;100.00
60371;BME280;48550;40.588;49.684;2023-03-04T10:45:45;101168.81;;;9.41;100.00
60371;BME280;48550;40.588;49.684;2023-03-04T10:48:29;101173.66;;;9.57;100.00
60371;BME280;48550;40.588;49.684;2023-03-04T10:51:20;101181.06;;;9.62;100.00
60371;BME280;48550;40.588;49.684;2023-03-04T10:54:19;101180.75;;;9.38;100.00
60371;BME280;48550;40.588;49.684;2023-03-04T10:57:14;101191.44;;;9.45;100.00
60371;BME280;48550;40.588;49.684;2023-03-04T10:59:55;101220.53;;;9.41;100.00
60371;BME280;48550;40.588;49.684;2023-03-04T11:05:04;101241.13;;;9.41;100.00
60371;BME280;48550;40.588;49.684;2023-03-04T11:07:30;101246.50;;;9.34;100.00
60371;BME280;48550;40.588;49.684;2023-03-04T11:12:34;101261.81;;;9.14;100.00
60371;BME280;48550;40.588;49.684;2023-03-04T11:15:01;101255.91;;;8.92;100.00
60371;BME280;48550;40.588;49.684;2023-03-04T11:17:38;101262.06;;;8.79;100.00
60371;BME280;48550;40.588;49.684;2023-03-04T11:22:51;101270.50;;;8.70;100.00
60371;BME280;48550;40.588;49.684;2023-03-04T11:25:34;101281.22;;;8.76;100.00
60371;BME280;48550;40.588;49.684;2023-03-04T11:28:14;101296.25;;;8.71;100.00
60371;BME280;48550;40.588;49.684;2023-03-04T11:30:47;101290.06;;;8.77;100.00
60371;BME280;48550;40.588;49.684;2023-03-04T11:33:21;101304.69;;;8.68;100.00
60371;BME280;48550;40.588;49.684;2023-03-04T11:35:54;101312.69;;;8.41;100.00
60371;BME280;48550;40.588;49.684;2023-03-04T11:38:27;101322.31;;;8.29;100.00
60371;BME280;48550;40.588;49.684;2023-03-04T11:41:15;101323.19;;;8.36;100.00
60371;BME280;48550;40.588;49.684;2023-03-04T11:43:44;101328.13;;;8.39;100.00
60371;BME280;48550;40.588;49.684;2023-03-04T11:51:26;101345.94;;;8.19;100.00
60371;BME280;48550;40.588;49.684;2023-03-04T11:56:55;101346.53;;;8.14;100.00
60371;BME280;48550;40.588;49.684;2023-03-04T12:02:42;101366.13;;;7.80;100.00
60371;BME280;48550;40.588;49.684;2023-03-04T12:16:17;101394.19;;;8.04;100.00
60371;BME280;48550;40.588;49.684;2023-03-04T12:21:20;101407.31;;;7.92;100.00
60371;BME280;48550;40.588;49.684;2023-03-04T12:43:29;101439.88;;;8.09;100.00
60371;BME280;48550;40.588;49.684;2023-03-04T12:54:54;101434.81;;;7.52;100.00
60371;BME280;48550;40.588;49.684;2023-03-04T12:57:26;101423.25;;;7.45;100.00
60371;BME280;48550;40.588;49.684;2023-03-04T13:02:58;101449.31;;;7.43;100.00
60371;BME280;48550;40.588;49.684;2023-03-04T13:05:52;101458.09;;;7.37;100.00
60371;BME280;48550;40.588;49.684;2023-03-04T13:27:50;101532.88;;;7.37;100.00
60371;BME280;48550;40.588;49.684;2023-03-04T13:43:44;101553.47;;;7.21;100.00
60371;BME280;48550;40.588;49.684;2023-03-04T13:51:39;101560.91;;;7.05;100.00
60371;BME280;48550;40.588;49.684;2023-03-04T14:02:23;101577.50;;;6.85;100.00
60371;BME280;48550;40.588;49.684;2023-03-04T14:07:28;101584.78;;;6.77;100.00
60371;BME280;48550;40.588;49.684;2023-03-04T14:12:24;101595.72;;;6.67;100.00
60371;BME280;48550;40.588;49.684;2023-03-04T14:14:53;101595.09;;;6.65;100.00
60371;BME280;48550;40.588;49.684;2023-03-04T14:17:34;101597.47;;;6.60;100.00
60371;BME280;48550;40.588;49.684;2023-03-04T14:20:16;101605.28;;;6.61;100.00
60371;BME280;48550;40.588;49.684;2023-03-04T14:22:46;101612.66;;;6.59;100.00
60371;BME280;48550;40.588;49.684;2023-03-04T14:27:44;101627.00;;;6.58;100.00
60371;BME280;48550;40.588;49.684;2023-03-04T14:30:25;101617.25;;;6.51;100.00
60371;BME280;48550;40.588;49.684;2023-03-04T14:32:56;101629.94;;;6.49;100.00
60371;BME280;48550;40.588;49.684;2023-03-04T14:35:30;101627.66;;;6.46;100.00
60371;BME280;48550;40.588;49.684;2023-03-04T14:38:25;101642.00;;;6.45;100.00
60371;BME280;48550;40.588;49.684;2023-03-04T14:41:00;101647.31;;;6.45;100.00
60371;BME280;48550;40.588;49.684;2023-03-04T14:43:28;101650.19;;;6.43;100.00
60371;BME280;48550;40.588;49.684;2023-03-04T14:45:58;101662.88;;;6.41;100.00
60371;BME280;48550;40.588;49.684;2023-03-04T14:48:31;101659.56;;;6.39;100.00
60371;BME280;48550;40.588;49.684;2023-03-04T14:50:59;101655.59;;;6.35;100.00
60371;BME280;48550;40.588;49.684;2023-03-04T14:53:31;101667.28;;;6.34;100.00
60371;BME280;48550;40.588;49.684;2023-03-04T14:56:05;101665.97;;;6.30;100.00
60371;BME280;48550;40.588;49.684;2023-03-04T14:58:36;101655.78;;;6.33;100.00
60371;BME280;48550;40.588;49.684;2023-03-04T15:01:27;101651.44;;;6.32;100.00
60371;BME280;48550;40.588;49.684;2023-03-04T15:06:31;101671.13;;;6.31;100.00